»·PEaware :: ASH6023 KSLC-KPHX

ASH6023 :: KSLC-KPHX

FLIGHT INFORMATION

Flight Status: Arrived
Operator:
Mesa Airlines
More flights by this operator :: More flights under this callsign
Pilot: Max W. (2591)
Aircraft: EMBRAER EMB-170/175
(E170)
More flights by this aircraft type
Origin: KSLC Salt Lake City Intl
United States
Destination: KPHX Phoenix Sky Harbor Intl
United States
More flights between these airports :: More routes between these airports
Route: +ARCHZ1 MLF TENTS BRUSR1
File this flight plan on PilotEdge
Remarks: AW GOOD EVENING!
Altitude:
(Current/Filed)
35,000ft
Speed:
(Current/Filed)
450kts
Departed: 14-Sep-19 05:51 PM
Arrived: 14-Sep-19 07:10 PM
Distance/Time
Traveled:
441nm/1:19
Distance/Time
To Go:
Arrived

Flight Plot

Page will automatically refresh every two minutes.

Flight plan parsing failed; only flown route is shown


Map Options




Map Legend


Flown Route
Filed Route
Departure Airport
Arrival Airport
Navaid (VOR, NDB)
Fix

Horizontal Profiles

Position Reports

Time Latitude Longitude Heading Altitude Ground
Speed
14-Sep-19 17:15 40.786758 -111.978291 313 4233ft 0kts
14-Sep-19 17:17 40.786758 -111.978291 313 4233ft 0kts
14-Sep-19 17:18 40.786758 -111.978291 313 4233ft 0kts
14-Sep-19 17:18 40.786758 -111.978291 313 4233ft 0kts
14-Sep-19 17:20 40.786758 -111.978291 313 4233ft 0kts
14-Sep-19 17:21 40.786758 -111.978291 313 4233ft 0kts
14-Sep-19 17:21 40.786758 -111.978291 313 4233ft 0kts
14-Sep-19 17:22 40.786758 -111.978291 313 4233ft 0kts
14-Sep-19 17:24 40.786758 -111.978291 313 4233ft 0kts
14-Sep-19 17:24 40.786758 -111.978291 313 4233ft 0kts
14-Sep-19 17:25 40.786758 -111.978291 313 4233ft 0kts
14-Sep-19 17:27 40.786758 -111.978291 313 4233ft 0kts
14-Sep-19 17:27 40.786758 -111.978291 313 4233ft 0kts
14-Sep-19 17:28 40.786758 -111.978291 313 4233ft 0kts
14-Sep-19 17:29 40.786758 -111.978291 313 4233ft 0kts
14-Sep-19 17:30 40.786758 -111.978291 313 4233ft 0kts
14-Sep-19 17:31 40.786758 -111.978291 313 4233ft 0kts
14-Sep-19 17:32 40.786758 -111.978291 313 4233ft 0kts
14-Sep-19 17:33 40.786758 -111.978291 313 4233ft 0kts
14-Sep-19 17:34 40.786758 -111.978291 313 4233ft 0kts
14-Sep-19 17:35 40.786758 -111.978291 313 4233ft 0kts
14-Sep-19 17:36 40.786758 -111.978291 313 4233ft 0kts
14-Sep-19 17:37 40.786758 -111.978291 313 4233ft 0kts
14-Sep-19 17:38 40.786758 -111.978291 313 4233ft 0kts
14-Sep-19 17:39 40.786758 -111.978291 313 4233ft 0kts
14-Sep-19 17:40 40.786758 -111.978291 313 4233ft 0kts
14-Sep-19 17:41 40.786463 -111.977874 313 4233ft 2kts
14-Sep-19 17:42 40.786314 -111.977663 312 4233ft 0kts
14-Sep-19 17:43 40.786314 -111.977664 312 4233ft 0kts
14-Sep-19 17:44 40.786640 -111.977662 46 4233ft 6kts
14-Sep-19 17:45 40.783773 -111.976373 174 4233ft 18kts
14-Sep-19 17:46 40.778560 -111.975314 166 4233ft 18kts
14-Sep-19 17:47 40.774873 -111.974833 172 4233ft 0kts
14-Sep-19 17:48 40.774857 -111.974831 172 4233ft 0kts
14-Sep-19 17:49 40.774597 -111.974569 111 4233ft 10kts
14-Sep-19 17:50 40.799844 -111.975788 353 4845ft 153kts
14-Sep-19 17:51 40.833595 -112.020558 306 6480ft 206kts
14-Sep-19 17:52 40.873582 -112.092273 306 8016ft 281kts
14-Sep-19 17:53 40.864682 -112.179152 210 10833ft 286kts
14-Sep-19 17:54 40.785115 -112.234627 216 12469ft 347kts
14-Sep-19 17:55 40.704949 -112.283965 193 15024ft 359kts
14-Sep-19 17:56 40.608432 -112.303283 188 17429ft 370kts
14-Sep-19 17:57 40.512192 -112.330339 197 19533ft 380kts
14-Sep-19 17:58 40.409943 -112.373859 198 21545ft 390kts
14-Sep-19 17:59 40.304798 -112.417570 197 23803ft 405kts
14-Sep-19 18:00 40.195613 -112.462083 199 26715ft 418kts
14-Sep-19 18:01 40.088858 -112.529337 209 29222ft 433kts
14-Sep-19 18:02 39.982123 -112.607898 209 31423ft 448kts
14-Sep-19 18:03 39.883932 -112.677450 208 33274ft 407kts
14-Sep-19 18:04 39.783569 -112.747440 207 33889ft 409kts
14-Sep-19 18:05 39.685324 -112.813501 200 35044ft 393kts
14-Sep-19 18:06 39.575645 -112.838883 185 35055ft 415kts
14-Sep-19 18:07 39.454967 -112.853350 185 35053ft 452kts
14-Sep-19 18:08 39.331385 -112.871163 186 35040ft 433kts
14-Sep-19 18:09 39.214340 -112.888619 186 35039ft 412kts
14-Sep-19 18:10 39.100853 -112.905454 186 35041ft 418kts
14-Sep-19 18:11 38.980120 -112.923218 186 35038ft 456kts
14-Sep-19 18:12 38.860050 -112.940836 188 35016ft 428kts
14-Sep-19 18:13 38.739805 -112.958178 188 35029ft 437kts
14-Sep-19 18:14 38.618745 -112.975756 188 35028ft 437kts
14-Sep-19 18:15 38.497450 -112.993422 188 35027ft 437kts
14-Sep-19 18:16 38.376129 -113.010713 186 35026ft 437kts
14-Sep-19 18:17 38.254099 -112.996629 172 35026ft 443kts
14-Sep-19 18:18 38.132360 -112.967878 172 35025ft 442kts
14-Sep-19 18:19 38.011076 -112.942294 173 35046ft 441kts
14-Sep-19 18:20 37.894853 -112.919035 173 35088ft 441kts
14-Sep-19 18:21 37.773173 -112.894943 173 35093ft 440kts
14-Sep-19 18:22 37.652267 -112.870926 173 35092ft 439kts
14-Sep-19 18:23 37.531351 -112.846824 173 35092ft 439kts
14-Sep-19 18:24 37.410448 -112.822794 173 35090ft 438kts
14-Sep-19 18:25 37.289712 -112.798917 173 35083ft 438kts
14-Sep-19 18:26 37.174470 -112.776238 173 35085ft 438kts
14-Sep-19 18:27 37.054158 -112.752585 173 35086ft 427kts
14-Sep-19 18:28 36.944284 -112.730993 174 35081ft 410kts
14-Sep-19 18:29 36.836407 -112.710060 174 35096ft 410kts
14-Sep-19 18:30 36.723019 -112.688131 173 35093ft 412kts
14-Sep-19 18:31 36.609818 -112.666168 173 35090ft 410kts
14-Sep-19 18:32 36.496304 -112.644214 173 35087ft 412kts
14-Sep-19 18:33 36.382826 -112.622315 174 35128ft 412kts
14-Sep-19 18:34 36.269460 -112.600473 173 35176ft 412kts
14-Sep-19 18:35 36.156185 -112.578727 174 35187ft 410kts
14-Sep-19 18:36 36.042532 -112.556979 173 35186ft 412kts
14-Sep-19 18:37 35.928662 -112.535269 174 34118ft 412kts
14-Sep-19 18:38 35.819033 -112.514547 174 32504ft 422kts
14-Sep-19 18:39 35.701447 -112.492354 173 30835ft 430kts
14-Sep-19 18:40 35.581281 -112.469320 173 29367ft 435kts
14-Sep-19 18:41 35.460847 -112.446198 173 29287ft 437kts
14-Sep-19 18:42 35.340235 -112.422737 173 29337ft 437kts
14-Sep-19 18:43 35.219206 -112.398744 173 29338ft 438kts
14-Sep-19 18:44 35.098457 -112.373534 172 28777ft 441kts
14-Sep-19 18:45 34.982997 -112.348252 171 27005ft 420kts
14-Sep-19 18:46 34.872189 -112.323214 169 25234ft 420kts
14-Sep-19 18:47 34.758731 -112.298412 169 23433ft 401kts
14-Sep-19 18:48 34.651269 -112.274779 169 21615ft 374kts
14-Sep-19 18:49 34.553278 -112.253438 170 19795ft 348kts
14-Sep-19 18:50 34.459806 -112.233012 169 19230ft 343kts
14-Sep-19 18:51 34.366628 -112.209727 168 19133ft 345kts
14-Sep-19 18:52 34.273905 -112.185274 168 17512ft 335kts
14-Sep-19 18:53 34.185345 -112.161961 169 16344ft 303kts
14-Sep-19 18:54 34.102708 -112.141411 172 14512ft 300kts
14-Sep-19 18:55 34.020095 -112.143692 186 13069ft 291kts
14-Sep-19 18:56 33.938449 -112.153566 186 12434ft 294kts
14-Sep-19 18:57 33.860436 -112.166955 190 11095ft 287kts
14-Sep-19 18:58 33.789586 -112.182034 189 10091ft 273kts
14-Sep-19 18:59 33.721017 -112.196576 188 8434ft 267kts
14-Sep-19 19:00 33.647581 -112.212032 187 7034ft 260kts
14-Sep-19 19:01 33.581235 -112.226236 187 6018ft 222kts
14-Sep-19 19:02 33.519533 -112.239365 186 5503ft 224kts
14-Sep-19 19:03 33.460927 -112.237921 147 4964ft 198kts
14-Sep-19 19:04 33.437309 -112.188563 81 3307ft 183kts
14-Sep-19 19:05 33.440957 -112.135824 96 3233ft 137kts
14-Sep-19 19:06 33.441382 -112.094669 98 2572ft 110kts
14-Sep-19 19:07 33.441058 -112.058596 96 1720ft 110kts
14-Sep-19 19:08 33.440853 -112.021402 89 1115ft 83kts
14-Sep-19 19:09 33.439029 -112.016275 92 1115ft 24kts
14-Sep-19 19:10 33.437980 -112.009957 98 1115ft 6kts

Navigation Log

Ident Type
Flight plan parsing failed, navigation log unavailable